Terminal Aerodrome Forecast
Issued by NWS

Home | Current Version | Previous Version | Text Only | Print | Product List | Glossary On
Versions: 1 2 3 4 5 6 7 8 9 10 11 12 13 14 15 16 17 18 19 20 21 22 23 24 25 26 27
000
FTUS43 KDLH 010534
TAFHYR
TAF
KHYR 010534Z 0106/0206 04005KT P6SM SCT007
      TEMPO 0107/0109 5SM BR
     FM010900 05005KT 3SM BR SCT005
      TEMPO 0109/0112 1SM BR OVC005
     FM011400 06006KT P6SM SCT010 BKN060=

USA.gov is the U.S. government's official web portal to all federal, state and local government web resources and services.